createdAt,value
2023-02-15T00:00:21.319Z,99575.19
2023-02-15T00:02:49.925Z,99577.72
2023-02-15T00:05:18.493Z,99567.53
2023-02-15T00:07:47.062Z,99571.75
2023-02-15T00:10:15.490Z,99570.03
2023-02-15T00:12:44.094Z,99572.59
2023-02-15T00:15:14.032Z,99564.09
2023-02-15T00:17:42.371Z,99558.97
2023-02-15T00:20:11.958Z,99560.69
2023-02-15T00:22:40.290Z,99558.13
2023-02-15T00:25:09.001Z,99556.41
2023-02-15T00:27:37.348Z,99553.03
2023-02-15T00:30:07.764Z,99553.88
2023-02-15T00:32:37.445Z,99548.75
2023-02-15T00:35:07.900Z,99550.44
2023-02-15T00:37:36.267Z,99547.06
2023-02-15T00:40:06.632Z,99549.59
2023-02-15T00:42:35.009Z,99547.88
2023-02-15T00:45:03.487Z,99544.50
2023-02-15T00:47:31.891Z,99550.41
2023-02-15T00:50:01.576Z,99552.09
2023-02-15T00:52:30.002Z,99553.81
2023-02-15T00:54:58.354Z,99552.97
2023-02-15T00:57:26.769Z,99553.78
2023-02-15T00:59:55.216Z,99555.47
2023-02-15T01:02:23.749Z,99547.81
2023-02-15T01:04:52.164Z,99552.88
2023-02-15T01:07:21.747Z,99539.31
2023-02-15T01:09:50.347Z,99537.59
2023-02-15T01:12:18.646Z,99537.56
2023-02-15T01:14:49.267Z,99544.38
2023-02-15T01:17:17.643Z,99544.38
2023-02-15T01:19:46.060Z,99546.06
2023-02-15T01:22:14.345Z,99541.81
2023-02-15T01:24:44.047Z,99544.34
2023-02-15T01:27:12.369Z,99540.09
2023-02-15T01:29:40.933Z,99552.78
2023-02-15T01:32:09.344Z,99556.16
2023-02-15T01:34:37.833Z,99551.06
2023-02-15T01:37:06.453Z,99544.25
2023-02-15T01:39:34.712Z,99545.94
2023-02-15T01:42:05.408Z,99542.53
2023-02-15T01:44:57.116Z,99535.69
2023-02-15T01:47:34.482Z,99541.59
2023-02-15T01:50:10.648Z,99539.91
2023-02-15T01:52:44.069Z,99539.88
2023-02-15T01:55:13.919Z,99543.25
2023-02-15T01:57:45.773Z,99536.44
2023-02-15T02:00:17.835Z,99533.06
2023-02-15T02:02:53.833Z,99526.28
2023-02-15T02:05:27.426Z,99527.94
2023-02-15T02:07:59.920Z,99524.53
2023-02-15T02:10:28.860Z,99527.06
2023-02-15T02:13:05.203Z,99522.81
2023-02-15T02:15:42.812Z,99521.97
2023-02-15T02:18:26.022Z,99522.78
2023-02-15T02:21:54.262Z,99518.50
2023-02-15T02:25:01.426Z,99510.03
2023-02-15T02:27:40.938Z,99518.50
2023-02-15T02:30:37.100Z,99526.94
2023-02-15T02:33:33.434Z,99528.59
2023-02-15T02:36:14.978Z,99522.69
2023-02-15T02:38:57.677Z,99526.00
2023-02-15T02:41:34.945Z,99520.91
2023-02-15T02:44:12.837Z,99520.03
2023-02-15T02:46:51.144Z,99519.16
2023-02-15T02:49:32.525Z,99504.72
2023-02-15T02:52:03.297Z,99507.28
2023-02-15T02:54:32.832Z,99513.19
2023-02-15T02:57:06.161Z,99511.47
2023-02-15T02:59:40.837Z,99516.47
2023-02-15T03:02:14.302Z,99517.31
2023-02-15T03:04:49.345Z,99506.28
2023-02-15T03:07:23.013Z,99504.59
2023-02-15T03:09:54.354Z,99504.53
2023-02-15T03:12:26.525Z,99499.44
2023-02-15T03:15:00.770Z,99501.97
2023-02-15T03:17:34.082Z,99496.06
2023-02-15T03:20:10.262Z,99496.84
2023-02-15T03:22:43.961Z,99491.72
2023-02-15T03:25:19.616Z,99504.41
2023-02-15T03:27:53.069Z,99506.91
2023-02-15T03:30:24.907Z,99501.81
2023-02-15T03:32:55.208Z,99505.19
2023-02-15T03:35:29.874Z,99503.47
2023-02-15T03:38:03.325Z,99493.28
2023-02-15T03:40:53.434Z,99500.88
2023-02-15T03:43:31.258Z,99503.38
2023-02-15T03:46:08.564Z,99512.66
2023-02-15T03:48:42.664Z,99504.19
2023-02-15T03:51:39.130Z,99506.69
2023-02-15T03:54:10.877Z,99509.22
2023-02-15T03:56:42.379Z,99500.75
2023-02-15T03:59:28.201Z,99499.88
2023-02-15T04:02:09.473Z,99497.34
2023-02-15T04:04:39.688Z,99496.47
2023-02-15T04:07:11.069Z,99503.16
2023-02-15T04:09:57.190Z,99503.16
2023-02-15T04:12:25.738Z,99509.88
2023-02-15T04:15:11.608Z,99512.34
2023-02-15T04:17:40.248Z,99512.28
2023-02-15T04:20:28.416Z,99502.91
2023-02-15T04:23:15.571Z,99507.09
2023-02-15T04:25:44.073Z,99505.34
2023-02-15T04:28:12.316Z,99497.66
2023-02-15T04:30:40.596Z,99496.72
2023-02-15T04:33:08.917Z,99497.56
2023-02-15T04:35:37.225Z,99495.81
2023-02-15T04:38:06.942Z,99485.59
2023-02-15T04:40:35.166Z,99490.63
2023-02-15T04:43:03.502Z,99492.19
2023-02-15T04:45:31.876Z,99496.38
2023-02-15T04:48:00.528Z,99478.53
2023-02-15T04:50:28.825Z,99482.69
2023-02-15T04:52:57.087Z,99477.59
2023-02-15T04:55:27.951Z,99476.75
2023-02-15T04:57:56.273Z,99473.25
2023-02-15T05:00:25.027Z,99478.31
2023-02-15T05:02:53.482Z,99479.03
2023-02-15T05:05:22.193Z,99471.38
2023-02-15T05:07:50.636Z,99467.91
2023-02-15T05:10:19.260Z,99471.28
2023-02-15T05:12:49.134Z,99472.97
2023-02-15T05:15:17.709Z,99488.03
2023-02-15T05:17:45.951Z,99482.91
2023-02-15T05:20:14.925Z,99485.34
2023-02-15T05:22:43.182Z,99482.75
2023-02-15T05:25:29.314Z,99486.09
2023-02-15T05:28:16.467Z,99484.41
2023-02-15T05:30:45.016Z,99489.47
2023-02-15T05:33:13.361Z,99492.00
2023-02-15T05:35:42.210Z,99481.88
2023-02-15T05:38:10.702Z,99484.44
2023-02-15T05:40:39.126Z,99489.50
2023-02-15T05:43:08.913Z,99486.16
2023-02-15T05:45:37.286Z,99487.03
2023-02-15T05:48:05.968Z,99489.50
2023-02-15T05:50:34.282Z,99481.94
2023-02-15T05:53:02.634Z,99486.16
2023-02-15T05:55:30.887Z,99481.06
2023-02-15T05:57:59.325Z,99480.25
2023-02-15T06:00:29.043Z,99472.56
2023-02-15T06:02:57.605Z,99474.28
2023-02-15T06:05:26.028Z,99487.72
2023-02-15T06:07:54.454Z,99481.78
2023-02-15T06:10:22.929Z,99484.28
2023-02-15T06:12:51.374Z,99492.69
2023-02-15T06:15:19.949Z,99482.53
2023-02-15T06:17:49.627Z,99492.63
2023-02-15T06:20:18.466Z,99484.19
2023-02-15T06:22:46.738Z,99485.91
2023-02-15T06:25:15.340Z,99493.53
2023-02-15T06:27:44.678Z,99498.63
2023-02-15T06:30:15.406Z,99503.69
2023-02-15T06:32:43.814Z,99506.16
2023-02-15T06:35:13.791Z,99507.75
2023-02-15T06:37:42.636Z,99511.09
2023-02-15T06:40:11.848Z,99512.81
2023-02-15T06:42:40.121Z,99523.75
2023-02-15T06:45:09.764Z,99517.84
2023-02-15T06:47:38.154Z,99521.22
2023-02-15T06:50:11.790Z,99522.06
2023-02-15T06:52:41.389Z,99521.16
2023-02-15T06:55:10.062Z,99520.31
2023-02-15T06:57:38.496Z,99525.31
2023-02-15T07:00:09.194Z,99517.72
2023-02-15T07:02:37.524Z,99516.03
2023-02-15T07:05:06.094Z,99514.31
2023-02-15T07:07:34.656Z,99513.50
2023-02-15T07:10:05.041Z,99521.91
2023-02-15T07:12:45.443Z,99521.91
2023-02-15T07:15:16.703Z,99524.44
2023-02-15T07:17:45.809Z,99524.47
2023-02-15T07:20:18.085Z,99532.91
2023-02-15T07:22:46.928Z,99532.91
2023-02-15T07:25:17.153Z,99541.41
2023-02-15T07:27:45.918Z,99539.69
2023-02-15T07:30:17.442Z,99540.50
2023-02-15T07:33:05.445Z,99537.16
2023-02-15T07:35:34.455Z,99543.91
2023-02-15T07:38:03.356Z,99538.06
2023-02-15T07:40:33.181Z,99541.47
2023-02-15T07:43:01.648Z,99532.19
2023-02-15T07:45:30.234Z,99528.88
2023-02-15T07:47:58.724Z,99522.97
2023-02-15T07:50:27.095Z,99519.63
2023-02-15T07:52:55.896Z,99521.41
2023-02-15T07:55:24.427Z,99520.50
2023-02-15T07:57:55.018Z,99518.03
2023-02-15T08:00:25.835Z,99514.66
2023-02-15T08:03:10.876Z,99510.47
2023-02-15T08:05:39.967Z,99519.75
2023-02-15T08:08:09.894Z,99513.88
2023-02-15T08:10:58.088Z,99524.84
2023-02-15T08:13:27.764Z,99531.66
2023-02-15T08:15:56.144Z,99532.59
2023-02-15T08:18:24.586Z,99532.59
2023-02-15T08:20:52.868Z,99537.72
2023-02-15T08:23:21.240Z,99536.94
2023-02-15T08:25:49.531Z,99533.56
2023-02-15T08:28:18.096Z,99531.03
2023-02-15T08:30:48.029Z,99524.34
2023-02-15T08:33:18.957Z,99526.91
2023-02-15T08:35:47.899Z,99525.25
2023-02-15T08:38:16.517Z,99528.69
2023-02-15T08:40:44.783Z,99520.22
2023-02-15T08:43:13.072Z,99527.88
2023-02-15T08:45:41.411Z,99532.16
2023-02-15T08:48:11.171Z,99528.81
2023-02-15T08:50:39.522Z,99530.56
2023-02-15T08:53:08.134Z,99529.75
2023-02-15T08:55:36.412Z,99533.19
2023-02-15T08:58:04.787Z,99529.03
2023-02-15T09:00:33.246Z,99519.81
2023-02-15T09:03:01.873Z,99514.78
2023-02-15T09:05:31.615Z,99514.84
2023-02-15T09:07:59.884Z,99513.16
2023-02-15T09:10:28.166Z,99512.41
2023-02-15T09:12:56.587Z,99509.09
2023-02-15T09:15:25.022Z,99500.66
2023-02-15T09:17:53.542Z,99502.38
2023-02-15T09:20:22.806Z,99504.13
2023-02-15T09:22:57.606Z,99505.88
2023-02-15T09:25:27.075Z,99511.00
2023-02-15T09:27:55.835Z,99503.44
2023-02-15T09:30:24.373Z,99503.50
2023-02-15T09:32:52.838Z,99501.00
2023-02-15T09:35:21.263Z,99491.75
2023-02-15T09:37:49.470Z,99488.38
2023-02-15T09:40:20.261Z,99491.84
2023-02-15T09:43:05.777Z,99486.00
2023-02-15T09:46:04.769Z,99492.88
2023-02-15T09:48:43.964Z,99473.47
2023-02-15T09:51:48.553Z,99475.19
2023-02-15T09:54:40.574Z,99473.59
2023-02-15T09:57:18.748Z,99471.03
2023-02-15T10:00:00.282Z,99477.00
2023-02-15T10:02:45.986Z,99477.09
2023-02-15T10:05:28.886Z,99474.59
2023-02-15T10:08:40.735Z,99465.34
2023-02-15T10:11:34.906Z,99465.38
2023-02-15T10:14:21.328Z,99461.25
2023-02-15T10:16:58.762Z,99465.56
2023-02-15T10:19:36.983Z,99460.47
2023-02-15T10:22:23.300Z,99458.84
2023-02-15T10:25:13.087Z,99464.88
2023-02-15T10:27:48.281Z,99459.84
2023-02-15T10:30:21.278Z,99455.63
2023-02-15T10:33:01.775Z,99449.78
2023-02-15T10:35:39.957Z,99450.66
2023-02-15T10:38:33.423Z,99449.00
2023-02-15T10:41:17.853Z,99446.50
2023-02-15T10:44:10.259Z,99438.06
2023-02-15T10:46:59.852Z,99438.06
2023-02-15T10:49:52.455Z,99431.34
2023-02-15T10:52:34.433Z,99437.28
2023-02-15T10:55:14.681Z,99428.84
2023-02-15T10:57:54.138Z,99422.09
2023-02-15T11:00:32.200Z,99420.41
2023-02-15T11:03:29.501Z,99412.81
2023-02-15T11:06:07.684Z,99409.44
2023-02-15T11:08:42.563Z,99406.06
2023-02-15T11:11:14.934Z,99410.28
2023-02-15T11:13:50.103Z,99401.81
2023-02-15T11:16:24.032Z,99397.59
2023-02-15T11:18:59.356Z,99391.69
2023-02-15T11:21:34.593Z,99399.31
2023-02-15T11:24:03.312Z,99401.03
2023-02-15T11:26:38.721Z,99398.47
2023-02-15T11:29:14.498Z,99400.19
2023-02-15T11:31:47.805Z,99398.50
2023-02-15T11:34:25.779Z,99395.09
2023-02-15T11:36:58.014Z,99389.19
2023-02-15T11:39:29.464Z,99390.03
2023-02-15T11:42:04.430Z,99392.53
2023-02-15T11:44:34.884Z,99388.19
2023-02-15T11:47:03.586Z,99388.91
2023-02-15T11:49:35.805Z,99388.72
2023-02-15T11:52:09.256Z,99390.19
2023-02-15T11:54:43.678Z,99386.56
2023-02-15T11:57:16.824Z,99384.56
2023-02-15T11:59:52.006Z,99380.06
2023-02-15T12:02:23.861Z,99381.63
2023-02-15T12:04:58.644Z,99378.81
2023-02-15T12:07:29.656Z,99376.91
2023-02-15T12:10:07.991Z,99369.66
2023-02-15T12:12:38.163Z,99371.38
2023-02-15T12:15:09.537Z,99366.19
2023-02-15T12:17:42.991Z,99371.16
2023-02-15T12:20:30.049Z,99362.94
2023-02-15T12:23:04.775Z,99358.63
2023-02-15T12:25:42.164Z,99361.81
2023-02-15T12:28:26.965Z,99356.50
2023-02-15T12:30:57.139Z,99352.81
2023-02-15T12:33:32.437Z,99342.50
2023-02-15T12:36:10.798Z,99342.94
2023-02-15T12:38:39.733Z,99344.41
2023-02-15T12:41:25.819Z,99343.81
2023-02-15T12:44:14.430Z,99337.59
2023-02-15T12:46:43.342Z,99344.41
2023-02-15T12:49:21.380Z,99339.00
2023-02-15T12:51:53.881Z,99331.41
2023-02-15T12:54:41.847Z,99329.44
2023-02-15T12:57:26.891Z,99324.00
2023-02-15T12:59:59.970Z,99319.19
2023-02-15T13:02:33.562Z,99312.75
2023-02-15T13:05:19.296Z,99316.66
2023-02-15T13:07:52.590Z,99306.06
2023-02-15T13:10:31.324Z,99308.19
2023-02-15T13:13:00.511Z,99299.13
2023-02-15T13:15:36.697Z,99296.25
2023-02-15T13:18:13.002Z,99282.78
2023-02-15T13:20:42.657Z,99279.88
2023-02-15T13:23:28.429Z,99274.69
2023-02-15T13:26:00.531Z,99277.94
2023-02-15T13:28:39.483Z,99276.25
2023-02-15T13:31:16.240Z,99272.25
2023-02-15T13:33:48.743Z,99263.91
2023-02-15T13:36:26.070Z,99270.28
2023-02-15T13:39:11.642Z,99264.50
2023-02-15T13:41:57.944Z,99261.44
2023-02-15T13:44:52.156Z,99253.88
2023-02-15T13:47:27.865Z,99253.06
2023-02-15T13:50:19.564Z,99247.41
2023-02-15T13:52:54.411Z,99252.31
2023-02-15T13:55:42.876Z,99242.28
2023-02-15T13:59:00.649Z,99237.06
2023-02-15T14:01:39.925Z,99225.81
2023-02-15T14:04:39.910Z,99228.59
2023-02-15T14:07:35.800Z,99227.75
2023-02-15T14:10:25.069Z,99221.53
2023-02-15T14:13:27.379Z,99227.00
2023-02-15T14:16:03.115Z,99223.81
2023-02-15T14:18:42.131Z,99223.09
2023-02-15T14:21:18.310Z,99234.19
2023-02-15T14:24:09.110Z,99229.81
2023-02-15T14:26:47.884Z,99229.31
2023-02-15T14:29:30.251Z,99231.13
2023-02-15T14:32:03.740Z,99228.13
2023-02-15T14:34:40.191Z,99216.06
2023-02-15T14:37:08.621Z,99227.81
2023-02-15T14:40:06.931Z,99228.91
2023-02-15T14:42:45.047Z,99233.03
2023-02-15T14:45:24.960Z,99232.88
2023-02-15T14:48:06.641Z,99227.75
2023-02-15T14:50:45.588Z,99223.72
2023-02-15T14:53:39.593Z,99215.34
2023-02-15T14:56:27.882Z,99221.38
2023-02-15T14:59:16.331Z,99218.53
2023-02-15T15:02:00.150Z,99220.59
2023-02-15T15:04:33.524Z,99215.88
2023-02-15T15:07:10.373Z,99221.69
2023-02-15T15:09:41.635Z,99224.31
2023-02-15T15:12:39.644Z,99224.81
2023-02-15T15:15:09.944Z,99221.56
2023-02-15T15:18:02.565Z,99229.56
2023-02-15T15:20:48.623Z,99227.34
2023-02-15T15:23:45.843Z,99221.88
2023-02-15T15:26:29.459Z,99219.69
2023-02-15T15:29:03.440Z,99219.38
2023-02-15T15:31:46.638Z,99218.75
2023-02-15T15:35:01.796Z,99215.75
2023-02-15T15:37:58.587Z,99218.84
2023-02-15T15:41:00.389Z,99214.66
2023-02-15T15:44:23.088Z,99221.78
2023-02-15T15:47:23.577Z,99218.28
2023-02-15T15:49:58.414Z,99216.28
2023-02-15T15:52:28.572Z,99220.63
2023-02-15T15:55:07.200Z,99225.84
2023-02-15T15:57:42.785Z,99219.13
2023-02-15T16:00:32.786Z,99220.72
2023-02-15T16:03:01.247Z,99215.25
2023-02-15T16:05:38.594Z,99219.41
2023-02-15T16:08:08.257Z,99215.59
2023-02-15T16:10:39.056Z,99222.16
2023-02-15T16:13:08.685Z,99222.34
2023-02-15T16:15:46.031Z,99216.00
2023-02-15T16:18:18.604Z,99209.91
2023-02-15T16:20:55.122Z,99216.50
2023-02-15T16:24:01.797Z,99221.03
2023-02-15T16:26:58.513Z,99224.81
2023-02-15T16:29:32.332Z,99230.91
2023-02-15T16:32:03.560Z,99221.75
2023-02-15T16:34:33.525Z,99229.16
2023-02-15T16:37:24.405Z,99228.19
2023-02-15T16:39:52.968Z,99236.44
2023-02-15T16:42:21.592Z,99227.47
2023-02-15T16:44:57.042Z,99233.34
2023-02-15T16:47:28.462Z,99238.13
2023-02-15T16:50:03.023Z,99237.75
2023-02-15T16:52:33.239Z,99246.88
2023-02-15T16:55:04.854Z,99245.00
2023-02-15T16:57:37.620Z,99242.81
2023-02-15T17:00:09.387Z,99254.41
2023-02-15T17:02:55.061Z,99259.91
2023-02-15T17:05:25.101Z,99252.69
2023-02-15T17:08:18.171Z,99264.72
2023-02-15T17:11:04.397Z,99261.78
2023-02-15T17:13:33.340Z,99266.41
2023-02-15T17:16:32.594Z,99266.84
2023-02-15T17:19:02.119Z,99267.19
2023-02-15T17:21:35.215Z,99270.97
2023-02-15T17:24:06.259Z,99270.50
2023-02-15T17:26:38.222Z,99264.81
2023-02-15T17:29:24.436Z,99273.69
2023-02-15T17:31:54.524Z,99273.97
2023-02-15T17:34:47.148Z,99283.03
2023-02-15T17:37:26.832Z,99288.63
2023-02-15T17:39:57.144Z,99286.19
2023-02-15T17:42:25.660Z,99285.56
2023-02-15T17:44:53.884Z,99291.00
2023-02-15T17:47:25.739Z,99296.47
2023-02-15T17:49:55.530Z,99293.22
2023-02-15T17:52:24.287Z,99295.00
2023-02-15T17:55:10.376Z,99280.00
2023-02-15T17:57:40.057Z,99289.66
2023-02-15T18:00:29.380Z,99274.56
2023-02-15T18:03:15.324Z,99285.94
2023-02-15T18:06:01.977Z,99283.63
2023-02-15T18:08:48.330Z,99282.19
2023-02-15T18:11:34.300Z,99282.47
2023-02-15T18:14:04.415Z,99280.19
2023-02-15T18:16:36.788Z,99277.75
2023-02-15T18:19:06.487Z,99280.38
2023-02-15T18:21:35.151Z,99282.16
2023-02-15T18:24:03.412Z,99286.59
2023-02-15T18:26:31.811Z,99287.66
2023-02-15T18:29:00.220Z,99293.81
2023-02-15T18:31:30.089Z,99286.22
2023-02-15T18:34:00.973Z,99291.56
2023-02-15T18:36:33.253Z,99291.63
2023-02-15T18:39:07.779Z,99296.06
2023-02-15T18:41:37.267Z,99295.22
2023-02-15T18:44:11.564Z,99287.59
2023-02-15T18:46:41.195Z,99290.31
2023-02-15T18:49:09.658Z,99283.47
2023-02-15T18:51:40.199Z,99282.50
2023-02-15T18:54:19.245Z,99280.91
2023-02-15T18:56:54.356Z,99281.88
2023-02-15T18:59:24.178Z,99274.34
2023-02-15T19:01:54.172Z,99274.41
2023-02-15T19:04:24.877Z,99277.97
2023-02-15T19:06:54.100Z,99274.69
2023-02-15T19:09:25.589Z,99274.00
2023-02-15T19:11:56.511Z,99270.78
2023-02-15T19:14:29.108Z,99270.97
2023-02-15T19:17:00.623Z,99276.25
2023-02-15T19:19:29.091Z,99277.22
2023-02-15T19:21:57.588Z,99274.78
2023-02-15T19:24:40.382Z,99279.31
2023-02-15T19:27:15.061Z,99276.09
2023-02-15T19:29:43.268Z,99275.25
2023-02-15T19:32:13.228Z,99266.91
2023-02-15T19:34:41.638Z,99267.84
2023-02-15T19:37:23.814Z,99264.56
2023-02-15T19:39:52.175Z,99274.94
2023-02-15T19:42:24.904Z,99270.75
2023-02-15T19:44:54.519Z,99271.59
2023-02-15T19:47:24.447Z,99271.66
2023-02-15T19:49:52.750Z,99263.13
2023-02-15T19:52:24.173Z,99266.63
2023-02-15T19:54:55.658Z,99264.06
2023-02-15T19:57:24.876Z,99257.22
2023-02-15T19:59:53.200Z,99256.47
2023-02-15T20:02:22.866Z,99254.91
2023-02-15T20:04:51.328Z,99259.28
2023-02-15T20:07:26.786Z,99265.41
2023-02-15T20:09:55.288Z,99262.09
2023-02-15T20:12:26.870Z,99251.91
2023-02-15T20:14:55.215Z,99257.97
2023-02-15T20:17:24.939Z,99250.28
2023-02-15T20:19:53.326Z,99253.78
2023-02-15T20:22:27.292Z,99251.28
2023-02-15T20:24:57.245Z,99259.09
2023-02-15T20:27:26.433Z,99253.16
2023-02-15T20:29:56.720Z,99253.22
2023-02-15T20:32:27.022Z,99261.03
2023-02-15T20:34:55.456Z,99260.34
2023-02-15T20:37:28.611Z,99254.41
2023-02-15T20:39:57.125Z,99251.94
2023-02-15T20:42:25.441Z,99254.56
2023-02-15T20:44:53.740Z,99243.53
2023-02-15T20:47:22.038Z,99246.97
2023-02-15T20:49:52.706Z,99243.53
2023-02-15T20:52:22.024Z,99245.31
2023-02-15T20:54:50.502Z,99251.38
2023-02-15T20:57:18.774Z,99246.25
2023-02-15T20:59:47.187Z,99241.16
2023-02-15T21:02:23.026Z,99238.75
2023-02-15T21:04:53.035Z,99244.00
2023-02-15T21:07:23.236Z,99234.72
2023-02-15T21:09:52.653Z,99227.91
2023-02-15T21:12:23.664Z,99236.63
2023-02-15T21:14:52.591Z,99248.72
2023-02-15T21:17:21.040Z,99246.34
2023-02-15T21:19:49.838Z,99246.53
2023-02-15T21:22:21.463Z,99248.41
2023-02-15T21:24:54.872Z,99250.03
2023-02-15T21:27:23.603Z,99247.44
2023-02-15T21:29:52.255Z,99234.69
2023-02-15T21:32:20.722Z,99244.94
2023-02-15T21:34:49.111Z,99246.69
2023-02-15T21:37:30.912Z,99244.09
2023-02-15T21:39:59.303Z,99239.97
2023-02-15T21:42:47.422Z,99227.25
2023-02-15T21:45:35.281Z,99229.97
2023-02-15T21:48:04.390Z,99233.66
2023-02-15T21:50:50.527Z,99237.31
2023-02-15T21:53:24.581Z,99241.66
2023-02-15T21:55:56.344Z,99237.50
2023-02-15T21:58:26.955Z,99233.31
2023-02-15T22:00:56.595Z,99234.13
2023-02-15T22:03:27.916Z,99234.91
2023-02-15T22:05:56.281Z,99237.59
2023-02-15T22:08:26.455Z,99229.94
2023-02-15T22:10:55.767Z,99231.63
2023-02-15T22:13:29.333Z,99232.47
2023-02-15T22:15:58.845Z,99233.34
2023-02-15T22:18:33.826Z,99237.59
2023-02-15T22:21:03.978Z,99235.03
2023-02-15T22:23:33.973Z,99242.78
2023-02-15T22:26:06.212Z,99248.78
2023-02-15T22:28:38.468Z,99241.19
2023-02-15T22:31:13.191Z,99246.38
2023-02-15T22:33:42.131Z,99248.94
2023-02-15T22:36:24.074Z,99247.38
2023-02-15T22:38:54.473Z,99241.56
2023-02-15T22:41:26.823Z,99239.03
2023-02-15T22:43:55.558Z,99243.25
2023-02-15T22:46:26.039Z,99240.72
2023-02-15T22:48:54.883Z,99236.38
2023-02-15T22:51:25.580Z,99235.50
2023-02-15T22:53:55.567Z,99237.19
2023-02-15T22:56:31.462Z,99238.84
2023-02-15T22:59:04.151Z,99243.09
2023-02-15T23:01:35.016Z,99239.69
2023-02-15T23:04:04.490Z,99241.47
2023-02-15T23:06:34.196Z,99247.47
2023-02-15T23:09:03.888Z,99245.84
2023-02-15T23:11:32.150Z,99248.41
2023-02-15T23:14:03.073Z,99246.75
2023-02-15T23:16:32.541Z,99247.66
2023-02-15T23:19:00.952Z,99250.28
2023-02-15T23:21:31.946Z,99250.31
2023-02-15T23:24:14.814Z,99258.94
2023-02-15T23:26:43.076Z,99250.44
2023-02-15T23:29:16.329Z,99258.16
2023-02-15T23:31:48.300Z,99260.78
2023-02-15T23:34:20.635Z,99252.28
2023-02-15T23:36:49.601Z,99261.66
2023-02-15T23:39:41.222Z,99260.84
2023-02-15T23:42:13.598Z,99262.59
2023-02-15T23:44:44.072Z,99267.75
2023-02-15T23:47:42.480Z,99271.22
2023-02-15T23:50:19.327Z,99265.28
2023-02-15T23:52:47.816Z,99263.69
2023-02-15T23:55:17.839Z,99259.41
2023-02-15T23:57:46.676Z,99259.41
